sensor_id;sensor_type;location;lat;lon;timestamp;temperature;humidity
47805;DHT22;33568;45.286;9.900;2023-12-07T00:01:11;3.80;98.40
47805;DHT22;33568;45.286;9.900;2023-12-07T00:03:38;3.80;98.30
47805;DHT22;33568;45.286;9.900;2023-12-07T00:06:04;3.80;98.10
47805;DHT22;33568;45.286;9.900;2023-12-07T00:08:30;3.70;98.20
47805;DHT22;33568;45.286;9.900;2023-12-07T00:10:56;3.70;98.00
47805;DHT22;33568;45.286;9.900;2023-12-07T00:13:23;3.60;98.40
47805;DHT22;33568;45.286;9.900;2023-12-07T00:15:49;3.60;98.90
47805;DHT22;33568;45.286;9.900;2023-12-07T00:18:15;3.60;99.10
47805;DHT22;33568;45.286;9.900;2023-12-07T00:20:41;3.60;99.40
47805;DHT22;33568;45.286;9.900;2023-12-07T00:23:08;3.60;99.60
47805;DHT22;33568;45.286;9.900;2023-12-07T00:25:34;3.60;99.80
47805;DHT22;33568;45.286;9.900;2023-12-07T00:28:00;3.50;99.80
47805;DHT22;33568;45.286;9.900;2023-12-07T00:30:26;3.50;99.90
47805;DHT22;33568;45.286;9.900;2023-12-07T00:32:52;3.50;99.90
47805;DHT22;33568;45.286;9.900;2023-12-07T00:35:19;3.50;99.90
47805;DHT22;33568;45.286;9.900;2023-12-07T00:37:48;3.50;99.90
47805;DHT22;33568;45.286;9.900;2023-12-07T00:40:14;3.50;99.90
47805;DHT22;33568;45.286;9.900;2023-12-07T00:42:41;3.60;99.90
47805;DHT22;33568;45.286;9.900;2023-12-07T00:45:07;3.60;99.90
47805;DHT22;33568;45.286;9.900;2023-12-07T00:47:33;3.60;99.90
47805;DHT22;33568;45.286;9.900;2023-12-07T00:49:59;3.60;99.80
47805;DHT22;33568;45.286;9.900;2023-12-07T00:52:26;3.60;99.90
47805;DHT22;33568;45.286;9.900;2023-12-07T00:54:52;3.50;99.80
47805;DHT22;33568;45.286;9.900;2023-12-07T00:57:19;3.50;99.90
47805;DHT22;33568;45.286;9.900;2023-12-07T00:59:45;3.50;99.90
47805;DHT22;33568;45.286;9.900;2023-12-07T01:02:11;3.50;99.90
47805;DHT22;33568;45.286;9.900;2023-12-07T01:04:37;3.50;99.90
47805;DHT22;33568;45.286;9.900;2023-12-07T01:07:03;3.50;99.90
47805;DHT22;33568;45.286;9.900;2023-12-07T01:09:30;3.50;99.90
47805;DHT22;33568;45.286;9.900;2023-12-07T01:11:56;3.50;99.90
47805;DHT22;33568;45.286;9.900;2023-12-07T01:14:24;3.50;99.90
47805;DHT22;33568;45.286;9.900;2023-12-07T01:16:50;3.50;99.90
47805;DHT22;33568;45.286;9.900;2023-12-07T01:19:16;3.40;99.90
47805;DHT22;33568;45.286;9.900;2023-12-07T01:21:42;3.40;99.90
47805;DHT22;33568;45.286;9.900;2023-12-07T01:24:09;3.30;99.90
47805;DHT22;33568;45.286;9.900;2023-12-07T01:26:35;3.30;99.90
47805;DHT22;33568;45.286;9.900;2023-12-07T01:29:01;3.30;99.90
47805;DHT22;33568;45.286;9.900;2023-12-07T01:31:29;3.20;99.90
47805;DHT22;33568;45.286;9.900;2023-12-07T01:33:55;3.20;99.90
47805;DHT22;33568;45.286;9.900;2023-12-07T01:36:21;3.20;99.90
47805;DHT22;33568;45.286;9.900;2023-12-07T01:38:47;3.20;99.90
47805;DHT22;33568;45.286;9.900;2023-12-07T01:41:14;3.30;99.90
47805;DHT22;33568;45.286;9.900;2023-12-07T01:43:47;3.20;99.90
47805;DHT22;33568;45.286;9.900;2023-12-07T01:46:13;3.20;99.90
47805;DHT22;33568;45.286;9.900;2023-12-07T01:48:40;3.20;99.90
47805;DHT22;33568;45.286;9.900;2023-12-07T01:51:06;3.20;99.90
47805;DHT22;33568;45.286;9.900;2023-12-07T01:53:32;3.30;99.90
47805;DHT22;33568;45.286;9.900;2023-12-07T01:55:59;3.30;99.90
47805;DHT22;33568;45.286;9.900;2023-12-07T01:58:26;3.30;99.90
47805;DHT22;33568;45.286;9.900;2023-12-07T02:00:52;3.30;99.90
47805;DHT22;33568;45.286;9.900;2023-12-07T02:03:18;3.30;99.90
47805;DHT22;33568;45.286;9.900;2023-12-07T02:05:46;3.40;99.90
47805;DHT22;33568;45.286;9.900;2023-12-07T02:08:13;3.30;99.90
47805;DHT22;33568;45.286;9.900;2023-12-07T02:10:39;3.30;99.90
47805;DHT22;33568;45.286;9.900;2023-12-07T02:13:05;3.30;99.80
47805;DHT22;33568;45.286;9.900;2023-12-07T02:15:32;3.30;99.90
47805;DHT22;33568;45.286;9.900;2023-12-07T02:20:28;3.30;99.90
47805;DHT22;33568;45.286;9.900;2023-12-07T02:22:56;3.30;99.80
47805;DHT22;33568;45.286;9.900;2023-12-07T02:25:29;3.30;99.80
47805;DHT22;33568;45.286;9.900;2023-12-07T02:27:57;3.20;99.70
47805;DHT22;33568;45.286;9.900;2023-12-07T02:30:23;3.20;99.70
47805;DHT22;33568;45.286;9.900;2023-12-07T02:32:49;3.20;99.70
47805;DHT22;33568;45.286;9.900;2023-12-07T02:35:16;3.20;99.70
47805;DHT22;33568;45.286;9.900;2023-12-07T02:37:46;3.20;99.50
47805;DHT22;33568;45.286;9.900;2023-12-07T02:40:16;3.10;99.70
47805;DHT22;33568;45.286;9.900;2023-12-07T02:42:43;3.10;99.70
47805;DHT22;33568;45.286;9.900;2023-12-07T02:45:10;3.10;99.50
47805;DHT22;33568;45.286;9.900;2023-12-07T02:47:36;3.10;99.40
47805;DHT22;33568;45.286;9.900;2023-12-07T02:50:04;3.00;99.70
47805;DHT22;33568;45.286;9.900;2023-12-07T02:52:30;3.00;99.90
47805;DHT22;33568;45.286;9.900;2023-12-07T02:54:56;3.00;99.90
47805;DHT22;33568;45.286;9.900;2023-12-07T02:57:22;3.00;99.90
47805;DHT22;33568;45.286;9.900;2023-12-07T02:59:49;2.90;99.90
47805;DHT22;33568;45.286;9.900;2023-12-07T03:02:15;3.00;99.90
47805;DHT22;33568;45.286;9.900;2023-12-07T03:04:41;3.00;99.90
47805;DHT22;33568;45.286;9.900;2023-12-07T03:07:07;3.00;99.90
47805;DHT22;33568;45.286;9.900;2023-12-07T03:09:34;3.00;99.90
47805;DHT22;33568;45.286;9.900;2023-12-07T03:12:00;3.00;99.90
47805;DHT22;33568;45.286;9.900;2023-12-07T03:14:26;3.00;99.90
47805;DHT22;33568;45.286;9.900;2023-12-07T03:16:52;3.00;99.90
47805;DHT22;33568;45.286;9.900;2023-12-07T03:19:18;3.00;99.90
47805;DHT22;33568;45.286;9.900;2023-12-07T03:21:45;3.00;99.90
47805;DHT22;33568;45.286;9.900;2023-12-07T03:24:11;3.00;99.90
47805;DHT22;33568;45.286;9.900;2023-12-07T03:26:37;3.00;99.90
47805;DHT22;33568;45.286;9.900;2023-12-07T03:29:04;3.00;99.90
47805;DHT22;33568;45.286;9.900;2023-12-07T03:31:30;3.00;99.90
47805;DHT22;33568;45.286;9.900;2023-12-07T03:33:56;3.00;99.90
47805;DHT22;33568;45.286;9.900;2023-12-07T03:36:22;3.00;99.90
47805;DHT22;33568;45.286;9.900;2023-12-07T03:38:49;3.00;99.90
47805;DHT22;33568;45.286;9.900;2023-12-07T03:41:15;3.00;99.90
47805;DHT22;33568;45.286;9.900;2023-12-07T03:43:41;3.00;99.90
47805;DHT22;33568;45.286;9.900;2023-12-07T03:46:08;3.00;99.90
47805;DHT22;33568;45.286;9.900;2023-12-07T03:48:34;3.00;99.90
47805;DHT22;33568;45.286;9.900;2023-12-07T03:51:00;3.00;99.90
47805;DHT22;33568;45.286;9.900;2023-12-07T03:53:27;3.00;99.90
47805;DHT22;33568;45.286;9.900;2023-12-07T03:55:55;3.00;99.90
47805;DHT22;33568;45.286;9.900;2023-12-07T03:58:21;3.00;99.90
47805;DHT22;33568;45.286;9.900;2023-12-07T04:00:48;3.00;99.90
47805;DHT22;33568;45.286;9.900;2023-12-07T04:03:14;2.90;99.90
47805;DHT22;33568;45.286;9.900;2023-12-07T04:05:40;2.90;99.90
47805;DHT22;33568;45.286;9.900;2023-12-07T04:08:06;2.90;99.90
47805;DHT22;33568;45.286;9.900;2023-12-07T04:10:32;2.80;99.90
47805;DHT22;33568;45.286;9.900;2023-12-07T04:12:59;2.80;99.90
47805;DHT22;33568;45.286;9.900;2023-12-07T04:15:25;2.70;99.90
47805;DHT22;33568;45.286;9.900;2023-12-07T04:17:51;2.80;99.90
47805;DHT22;33568;45.286;9.900;2023-12-07T04:20:18;2.70;99.90
47805;DHT22;33568;45.286;9.900;2023-12-07T04:22:44;2.70;99.90
47805;DHT22;33568;45.286;9.900;2023-12-07T04:25:11;2.70;99.90
47805;DHT22;33568;45.286;9.900;2023-12-07T04:27:37;2.60;99.90
47805;DHT22;33568;45.286;9.900;2023-12-07T04:30:04;2.60;99.90
47805;DHT22;33568;45.286;9.900;2023-12-07T04:32:31;2.60;99.90
47805;DHT22;33568;45.286;9.900;2023-12-07T04:34:57;2.60;99.90
47805;DHT22;33568;45.286;9.900;2023-12-07T04:37:23;2.60;99.90
47805;DHT22;33568;45.286;9.900;2023-12-07T04:39:49;2.60;99.90
47805;DHT22;33568;45.286;9.900;2023-12-07T04:42:16;2.60;99.90
47805;DHT22;33568;45.286;9.900;2023-12-07T04:44:42;2.60;99.90
47805;DHT22;33568;45.286;9.900;2023-12-07T04:47:08;2.60;99.90
47805;DHT22;33568;45.286;9.900;2023-12-07T04:49:34;2.60;99.90
47805;DHT22;33568;45.286;9.900;2023-12-07T04:52:01;2.60;99.90
47805;DHT22;33568;45.286;9.900;2023-12-07T04:54:27;2.60;99.90
47805;DHT22;33568;45.286;9.900;2023-12-07T04:56:53;2.50;99.90
47805;DHT22;33568;45.286;9.900;2023-12-07T04:59:20;2.50;99.90
47805;DHT22;33568;45.286;9.900;2023-12-07T05:01:47;2.60;99.90
47805;DHT22;33568;45.286;9.900;2023-12-07T05:04:13;2.60;99.90
47805;DHT22;33568;45.286;9.900;2023-12-07T05:06:39;2.50;99.90
47805;DHT22;33568;45.286;9.900;2023-12-07T05:09:05;2.50;99.90
47805;DHT22;33568;45.286;9.900;2023-12-07T05:11:35;2.50;99.90
47805;DHT22;33568;45.286;9.900;2023-12-07T05:14:02;2.50;99.90
47805;DHT22;33568;45.286;9.900;2023-12-07T05:16:29;2.50;99.90
47805;DHT22;33568;45.286;9.900;2023-12-07T05:18:55;2.60;99.90
47805;DHT22;33568;45.286;9.900;2023-12-07T05:21:21;2.50;99.90
47805;DHT22;33568;45.286;9.900;2023-12-07T05:23:48;2.60;99.90
47805;DHT22;33568;45.286;9.900;2023-12-07T05:26:14;2.50;99.90
47805;DHT22;33568;45.286;9.900;2023-12-07T05:28:40;2.50;99.90
47805;DHT22;33568;45.286;9.900;2023-12-07T05:31:06;2.50;99.90
47805;DHT22;33568;45.286;9.900;2023-12-07T05:33:33;2.50;99.90
47805;DHT22;33568;45.286;9.900;2023-12-07T05:35:59;2.60;99.90
47805;DHT22;33568;45.286;9.900;2023-12-07T05:38:26;2.60;99.90
47805;DHT22;33568;45.286;9.900;2023-12-07T05:40:53;2.60;99.90
47805;DHT22;33568;45.286;9.900;2023-12-07T05:43:19;2.50;99.90
47805;DHT22;33568;45.286;9.900;2023-12-07T05:45:45;2.60;99.90
47805;DHT22;33568;45.286;9.900;2023-12-07T05:48:12;2.50;99.90
47805;DHT22;33568;45.286;9.900;2023-12-07T05:50:38;2.50;99.90
47805;DHT22;33568;45.286;9.900;2023-12-07T05:53:06;2.50;99.90
47805;DHT22;33568;45.286;9.900;2023-12-07T05:55:32;2.50;99.90
47805;DHT22;33568;45.286;9.900;2023-12-07T05:57:59;2.50;99.90
47805;DHT22;33568;45.286;9.900;2023-12-07T06:00:25;2.50;99.90
47805;DHT22;33568;45.286;9.900;2023-12-07T06:02:51;2.50;99.90
47805;DHT22;33568;45.286;9.900;2023-12-07T06:05:17;2.50;99.90
47805;DHT22;33568;45.286;9.900;2023-12-07T06:07:44;2.50;99.90
47805;DHT22;33568;45.286;9.900;2023-12-07T06:10:10;2.50;99.90
47805;DHT22;33568;45.286;9.900;2023-12-07T06:12:37;2.50;99.90
47805;DHT22;33568;45.286;9.900;2023-12-07T06:15:04;2.50;99.90
47805;DHT22;33568;45.286;9.900;2023-12-07T06:17:33;2.50;99.90
47805;DHT22;33568;45.286;9.900;2023-12-07T06:19:59;2.50;99.90
47805;DHT22;33568;45.286;9.900;2023-12-07T06:22:26;2.40;99.90
47805;DHT22;33568;45.286;9.900;2023-12-07T06:24:52;2.50;99.90
47805;DHT22;33568;45.286;9.900;2023-12-07T06:27:18;2.50;99.90
47805;DHT22;33568;45.286;9.900;2023-12-07T06:29:44;2.50;99.90
47805;DHT22;33568;45.286;9.900;2023-12-07T06:32:11;2.50;99.90
47805;DHT22;33568;45.286;9.900;2023-12-07T06:34:40;2.50;99.90
47805;DHT22;33568;45.286;9.900;2023-12-07T06:37:07;2.50;99.90
47805;DHT22;33568;45.286;9.900;2023-12-07T06:39:33;2.50;99.90
47805;DHT22;33568;45.286;9.900;2023-12-07T06:41:59;2.50;99.90
47805;DHT22;33568;45.286;9.900;2023-12-07T06:44:25;2.40;99.90
47805;DHT22;33568;45.286;9.900;2023-12-07T06:46:52;2.40;99.90
47805;DHT22;33568;45.286;9.900;2023-12-07T06:49:43;2.30;99.70
47805;DHT22;33568;45.286;9.900;2023-12-07T06:52:10;2.30;99.10
47805;DHT22;33568;45.286;9.900;2023-12-07T06:54:39;2.30;98.80
47805;DHT22;33568;45.286;9.900;2023-12-07T06:57:06;2.30;98.70
47805;DHT22;33568;45.286;9.900;2023-12-07T06:59:35;2.30;98.60
47805;DHT22;33568;45.286;9.900;2023-12-07T07:02:01;2.30;98.50
47805;DHT22;33568;45.286;9.900;2023-12-07T07:04:28;2.30;98.60
47805;DHT22;33568;45.286;9.900;2023-12-07T07:06:55;2.30;98.60
47805;DHT22;33568;45.286;9.900;2023-12-07T07:09:22;2.30;98.50
47805;DHT22;33568;45.286;9.900;2023-12-07T07:11:49;2.20;98.50
47805;DHT22;33568;45.286;9.900;2023-12-07T07:14:16;2.20;98.70
47805;DHT22;33568;45.286;9.900;2023-12-07T07:16:42;2.20;99.70
47805;DHT22;33568;45.286;9.900;2023-12-07T07:19:09;2.30;99.30
47805;DHT22;33568;45.286;9.900;2023-12-07T07:21:35;2.40;99.20
47805;DHT22;33568;45.286;9.900;2023-12-07T07:24:01;2.50;99.10
47805;DHT22;33568;45.286;9.900;2023-12-07T07:26:28;2.60;99.10
47805;DHT22;33568;45.286;9.900;2023-12-07T07:28:54;2.60;99.10
47805;DHT22;33568;45.286;9.900;2023-12-07T07:31:21;2.70;99.20
47805;DHT22;33568;45.286;9.900;2023-12-07T07:33:48;2.80;99.20
47805;DHT22;33568;45.286;9.900;2023-12-07T07:36:14;2.80;99.20
47805;DHT22;33568;45.286;9.900;2023-12-07T07:38:42;2.90;99.20
47805;DHT22;33568;45.286;9.900;2023-12-07T07:41:08;3.00;99.10
47805;DHT22;33568;45.286;9.900;2023-12-07T07:43:35;3.10;99.10
47805;DHT22;33568;45.286;9.900;2023-12-07T07:46:02;3.10;99.10
47805;DHT22;33568;45.286;9.900;2023-12-07T07:48:29;3.20;99.10
47805;DHT22;33568;45.286;9.900;2023-12-07T07:50:55;3.30;99.10
47805;DHT22;33568;45.286;9.900;2023-12-07T07:53:22;3.40;99.40
47805;DHT22;33568;45.286;9.900;2023-12-07T07:55:48;3.50;99.10
47805;DHT22;33568;45.286;9.900;2023-12-07T07:58:14;3.50;98.80
47805;DHT22;33568;45.286;9.900;2023-12-07T08:00:41;3.60;98.90
47805;DHT22;33568;45.286;9.900;2023-12-07T08:03:08;3.60;98.80
47805;DHT22;33568;45.286;9.900;2023-12-07T08:05:34;3.70;98.80
47805;DHT22;33568;45.286;9.900;2023-12-07T08:08:01;3.80;98.80
47805;DHT22;33568;45.286;9.900;2023-12-07T08:10:27;3.90;98.60
47805;DHT22;33568;45.286;9.900;2023-12-07T08:12:54;3.80;98.60
47805;DHT22;33568;45.286;9.900;2023-12-07T08:15:20;3.80;98.70
47805;DHT22;33568;45.286;9.900;2023-12-07T08:17:47;3.80;98.90
47805;DHT22;33568;45.286;9.900;2023-12-07T08:20:14;3.80;98.80
47805;DHT22;33568;45.286;9.900;2023-12-07T08:22:40;3.80;99.00
47805;DHT22;33568;45.286;9.900;2023-12-07T08:25:07;3.80;98.70
47805;DHT22;33568;45.286;9.900;2023-12-07T08:27:37;3.80;98.90
47805;DHT22;33568;45.286;9.900;2023-12-07T08:30:05;3.90;98.70
47805;DHT22;33568;45.286;9.900;2023-12-07T08:32:32;4.00;98.60
47805;DHT22;33568;45.286;9.900;2023-12-07T08:34:58;4.10;98.40
47805;DHT22;33568;45.286;9.900;2023-12-07T08:37:25;4.20;98.30
47805;DHT22;33568;45.286;9.900;2023-12-07T08:39:51;4.20;98.10
47805;DHT22;33568;45.286;9.900;2023-12-07T08:42:18;4.20;98.10
47805;DHT22;33568;45.286;9.900;2023-12-07T08:44:44;4.20;98.00
47805;DHT22;33568;45.286;9.900;2023-12-07T08:47:10;4.10;97.90
47805;DHT22;33568;45.286;9.900;2023-12-07T08:49:37;4.10;98.20
47805;DHT22;33568;45.286;9.900;2023-12-07T08:52:03;4.20;98.10
47805;DHT22;33568;45.286;9.900;2023-12-07T08:54:30;4.20;98.20
47805;DHT22;33568;45.286;9.900;2023-12-07T08:56:56;4.20;98.20
47805;DHT22;33568;45.286;9.900;2023-12-07T08:59:22;4.30;98.00
47805;DHT22;33568;45.286;9.900;2023-12-07T09:01:49;4.40;98.10
47805;DHT22;33568;45.286;9.900;2023-12-07T09:04:15;4.40;97.90
47805;DHT22;33568;45.286;9.900;2023-12-07T09:06:42;4.30;97.80
47805;DHT22;33568;45.286;9.900;2023-12-07T09:09:08;4.40;98.10
47805;DHT22;33568;45.286;9.900;2023-12-07T09:11:34;4.50;98.00
47805;DHT22;33568;45.286;9.900;2023-12-07T09:14:01;4.50;98.30
47805;DHT22;33568;45.286;9.900;2023-12-07T09:16:27;4.60;98.00
47805;DHT22;33568;45.286;9.900;2023-12-07T09:18:54;4.70;97.90
47805;DHT22;33568;45.286;9.900;2023-12-07T09:21:20;4.70;97.80
47805;DHT22;33568;45.286;9.900;2023-12-07T09:23:47;4.90;97.80
47805;DHT22;33568;45.286;9.900;2023-12-07T09:26:13;5.00;97.60
47805;DHT22;33568;45.286;9.900;2023-12-07T09:28:39;5.00;97.90
47805;DHT22;33568;45.286;9.900;2023-12-07T09:31:06;5.20;97.90
47805;DHT22;33568;45.286;9.900;2023-12-07T09:33:33;5.30;97.60
47805;DHT22;33568;45.286;9.900;2023-12-07T09:35:59;5.40;97.60
47805;DHT22;33568;45.286;9.900;2023-12-07T09:38:26;5.90;98.10
47805;DHT22;33568;45.286;9.900;2023-12-07T09:40:53;8.30;96.70
47805;DHT22;33568;45.286;9.900;2023-12-07T09:43:19;11.30;92.00
47805;DHT22;33568;45.286;9.900;2023-12-07T09:45:46;14.20;84.50
47805;DHT22;33568;45.286;9.900;2023-12-07T09:48:12;16.20;69.10
47805;DHT22;33568;45.286;9.900;2023-12-07T09:50:39;17.70;71.70
47805;DHT22;33568;45.286;9.900;2023-12-07T09:53:08;18.60;58.60
47805;DHT22;33568;45.286;9.900;2023-12-07T09:55:35;19.20;65.70
47805;DHT22;33568;45.286;9.900;2023-12-07T09:58:04;19.90;63.60
47805;DHT22;33568;45.286;9.900;2023-12-07T10:00:31;20.70;60.60
47805;DHT22;33568;45.286;9.900;2023-12-07T10:02:57;21.10;58.70
47805;DHT22;33568;45.286;9.900;2023-12-07T10:05:23;20.90;50.50
47805;DHT22;33568;45.286;9.900;2023-12-07T10:07:50;21.20;57.70
47805;DHT22;33568;45.286;9.900;2023-12-07T10:10:18;21.60;55.60
47805;DHT22;33568;45.286;9.900;2023-12-07T10:12:54;21.90;54.50
47805;DHT22;33568;45.286;9.900;2023-12-07T10:15:23;22.10;51.80
47805;DHT22;33568;45.286;9.900;2023-12-07T10:17:50;21.90;52.00
47805;DHT22;33568;45.286;9.900;2023-12-07T10:20:21;22.20;51.70
47805;DHT22;33568;45.286;9.900;2023-12-07T10:25:36;23.50;46.40
47805;DHT22;33568;45.286;9.900;2023-12-07T10:28:02;24.00;48.50
47805;DHT22;33568;45.286;9.900;2023-12-07T10:30:36;24.60;48.10
47805;DHT22;33568;45.286;9.900;2023-12-07T10:33:04;24.50;47.00
47805;DHT22;33568;45.286;9.900;2023-12-07T10:35:31;24.00;46.30
47805;DHT22;33568;45.286;9.900;2023-12-07T10:37:58;24.20;46.30
47805;DHT22;33568;45.286;9.900;2023-12-07T10:40:24;24.20;45.40
47805;DHT22;33568;45.286;9.900;2023-12-07T10:42:52;24.40;42.60
47805;DHT22;33568;45.286;9.900;2023-12-07T10:45:22;25.20;45.80
47805;DHT22;33568;45.286;9.900;2023-12-07T10:47:51;25.50;44.80
47805;DHT22;33568;45.286;9.900;2023-12-07T10:50:23;26.10;44.20
47805;DHT22;33568;45.286;9.900;2023-12-07T10:52:53;26.10;43.00
47805;DHT22;33568;45.286;9.900;2023-12-07T10:55:21;26.10;42.40
47805;DHT22;33568;45.286;9.900;2023-12-07T10:57:55;26.00;43.10
47805;DHT22;33568;45.286;9.900;2023-12-07T11:00:22;25.90;42.00
47805;DHT22;33568;45.286;9.900;2023-12-07T11:02:54;26.20;42.30
47805;DHT22;33568;45.286;9.900;2023-12-07T11:05:20;26.90;41.90
47805;DHT22;33568;45.286;9.900;2023-12-07T11:07:51;27.20;41.10
47805;DHT22;33568;45.286;9.900;2023-12-07T11:13:29;26.80;38.90
47805;DHT22;33568;45.286;9.900;2023-12-07T11:15:57;26.90;40.20
47805;DHT22;33568;45.286;9.900;2023-12-07T11:18:29;27.40;40.70
47805;DHT22;33568;45.286;9.900;2023-12-07T11:20:56;27.60;39.10
47805;DHT22;33568;45.286;9.900;2023-12-07T11:23:23;27.20;39.80
47805;DHT22;33568;45.286;9.900;2023-12-07T11:25:52;27.20;39.80
47805;DHT22;33568;45.286;9.900;2023-12-07T11:28:18;27.50;39.40
47805;DHT22;33568;45.286;9.900;2023-12-07T11:31:00;27.50;39.40
47805;DHT22;33568;45.286;9.900;2023-12-07T11:33:31;27.80;39.40
47805;DHT22;33568;45.286;9.900;2023-12-07T11:36:05;28.10;38.70
47805;DHT22;33568;45.286;9.900;2023-12-07T11:38:32;28.40;38.00
47805;DHT22;33568;45.286;9.900;2023-12-07T11:40:59;28.50;38.90
47805;DHT22;33568;45.286;9.900;2023-12-07T11:45:59;28.70;37.90
47805;DHT22;33568;45.286;9.900;2023-12-07T11:48:26;28.90;38.40
47805;DHT22;33568;45.286;9.900;2023-12-07T11:51:05;28.90;38.10
47805;DHT22;33568;45.286;9.900;2023-12-07T11:53:33;28.60;37.30
47805;DHT22;33568;45.286;9.900;2023-12-07T11:56:02;28.70;38.20
47805;DHT22;33568;45.286;9.900;2023-12-07T11:58:30;28.90;38.00
47805;DHT22;33568;45.286;9.900;2023-12-07T12:00:57;29.00;37.90
47805;DHT22;33568;45.286;9.900;2023-12-07T12:03:25;29.10;37.80
47805;DHT22;33568;45.286;9.900;2023-12-07T12:05:51;29.00;37.70
47805;DHT22;33568;45.286;9.900;2023-12-07T12:08:18;29.10;37.70
47805;DHT22;33568;45.286;9.900;2023-12-07T12:10:46;28.80;37.50
47805;DHT22;33568;45.286;9.900;2023-12-07T12:13:12;28.10;37.50
47805;DHT22;33568;45.286;9.900;2023-12-07T12:15:39;25.40;38.10
47805;DHT22;33568;45.286;9.900;2023-12-07T12:18:07;22.40;40.90
47805;DHT22;33568;45.286;9.900;2023-12-07T12:20:34;19.70;43.80
47805;DHT22;33568;45.286;9.900;2023-12-07T12:23:01;17.50;46.50
47805;DHT22;33568;45.286;9.900;2023-12-07T12:25:29;15.90;48.90
47805;DHT22;33568;45.286;9.900;2023-12-07T12:27:58;14.80;50.80
47805;DHT22;33568;45.286;9.900;2023-12-07T12:30:27;13.90;52.50
47805;DHT22;33568;45.286;9.900;2023-12-07T12:32:55;13.20;54.00
47805;DHT22;33568;45.286;9.900;2023-12-07T12:35:22;12.80;55.30
47805;DHT22;33568;45.286;9.900;2023-12-07T12:37:49;12.40;56.30
47805;DHT22;33568;45.286;9.900;2023-12-07T12:40:18;12.00;57.40
47805;DHT22;33568;45.286;9.900;2023-12-07T12:42:49;11.80;58.40
47805;DHT22;33568;45.286;9.900;2023-12-07T12:45:17;11.60;59.40
47805;DHT22;33568;45.286;9.900;2023-12-07T12:47:47;11.40;60.30
47805;DHT22;33568;45.286;9.900;2023-12-07T12:50:37;11.30;61.00
47805;DHT22;33568;45.286;9.900;2023-12-07T12:53:06;11.20;62.60
47805;DHT22;33568;45.286;9.900;2023-12-07T12:55:36;11.10;62.40
47805;DHT22;33568;45.286;9.900;2023-12-07T12:58:05;11.00;63.00
47805;DHT22;33568;45.286;9.900;2023-12-07T13:00:34;10.90;63.60
47805;DHT22;33568;45.286;9.900;2023-12-07T13:03:04;10.80;64.00
47805;DHT22;33568;45.286;9.900;2023-12-07T13:05:31;10.80;64.50
47805;DHT22;33568;45.286;9.900;2023-12-07T13:08:02;10.70;64.90
47805;DHT22;33568;45.286;9.900;2023-12-07T13:10:29;10.60;65.20
47805;DHT22;33568;45.286;9.900;2023-12-07T13:12:57;10.60;65.50
47805;DHT22;33568;45.286;9.900;2023-12-07T13:15:23;10.50;65.90
47805;DHT22;33568;45.286;9.900;2023-12-07T13:17:51;10.40;66.40
47805;DHT22;33568;45.286;9.900;2023-12-07T13:20:17;10.40;66.90
47805;DHT22;33568;45.286;9.900;2023-12-07T13:22:44;10.50;67.70
47805;DHT22;33568;45.286;9.900;2023-12-07T13:25:11;10.50;68.20
47805;DHT22;33568;45.286;9.900;2023-12-07T13:27:41;10.50;68.40
47805;DHT22;33568;45.286;9.900;2023-12-07T13:30:09;10.50;68.80
47805;DHT22;33568;45.286;9.900;2023-12-07T13:32:36;10.50;68.90
47805;DHT22;33568;45.286;9.900;2023-12-07T13:35:04;10.50;69.10
47805;DHT22;33568;45.286;9.900;2023-12-07T13:37:31;10.50;69.30
47805;DHT22;33568;45.286;9.900;2023-12-07T13:39:59;10.60;69.40
47805;DHT22;33568;45.286;9.900;2023-12-07T13:42:26;10.50;69.40
47805;DHT22;33568;45.286;9.900;2023-12-07T13:44:55;10.60;69.50
47805;DHT22;33568;45.286;9.900;2023-12-07T13:47:27;10.60;69.70
47805;DHT22;33568;45.286;9.900;2023-12-07T13:50:03;10.50;69.90
47805;DHT22;33568;45.286;9.900;2023-12-07T13:52:30;10.50;70.10
47805;DHT22;33568;45.286;9.900;2023-12-07T13:54:57;10.50;70.40
47805;DHT22;33568;45.286;9.900;2023-12-07T13:57:24;10.30;71.30
47805;DHT22;33568;45.286;9.900;2023-12-07T13:59:50;10.30;70.80
47805;DHT22;33568;45.286;9.900;2023-12-07T14:02:17;10.20;71.90
47805;DHT22;33568;45.286;9.900;2023-12-07T14:04:45;10.30;71.00
47805;DHT22;33568;45.286;9.900;2023-12-07T14:07:14;10.30;71.00
47805;DHT22;33568;45.286;9.900;2023-12-07T14:09:42;10.20;71.20
47805;DHT22;33568;45.286;9.900;2023-12-07T14:12:10;10.20;71.40
47805;DHT22;33568;45.286;9.900;2023-12-07T14:14:41;10.20;71.60
47805;DHT22;33568;45.286;9.900;2023-12-07T14:17:08;10.10;71.80
47805;DHT22;33568;45.286;9.900;2023-12-07T14:19:35;10.00;72.00
47805;DHT22;33568;45.286;9.900;2023-12-07T14:22:01;10.00;72.30
47805;DHT22;33568;45.286;9.900;2023-12-07T14:24:28;9.90;73.50
47805;DHT22;33568;45.286;9.900;2023-12-07T14:26:57;9.90;72.80
47805;DHT22;33568;45.286;9.900;2023-12-07T14:29:23;9.90;72.70
47805;DHT22;33568;45.286;9.900;2023-12-07T14:31:51;9.90;72.90
47805;DHT22;33568;45.286;9.900;2023-12-07T14:34:18;9.80;73.00
47805;DHT22;33568;45.286;9.900;2023-12-07T14:36:46;9.80;73.10
47805;DHT22;33568;45.286;9.900;2023-12-07T14:39:13;9.70;73.40
47805;DHT22;33568;45.286;9.900;2023-12-07T14:41:47;9.70;73.60
47805;DHT22;33568;45.286;9.900;2023-12-07T14:44:14;9.70;73.90
47805;DHT22;33568;45.286;9.900;2023-12-07T14:46:43;9.70;74.10
47805;DHT22;33568;45.286;9.900;2023-12-07T14:49:11;9.70;74.20
47805;DHT22;33568;45.286;9.900;2023-12-07T14:51:38;9.70;74.40
47805;DHT22;33568;45.286;9.900;2023-12-07T14:54:05;9.60;74.70
47805;DHT22;33568;45.286;9.900;2023-12-07T14:56:31;9.40;76.20
47805;DHT22;33568;45.286;9.900;2023-12-07T14:59:00;9.40;75.50
47805;DHT22;33568;45.286;9.900;2023-12-07T15:01:27;9.30;75.80
47805;DHT22;33568;45.286;9.900;2023-12-07T15:03:54;9.20;76.30
47805;DHT22;33568;45.286;9.900;2023-12-07T15:06:21;9.20;76.70
47805;DHT22;33568;45.286;9.900;2023-12-07T15:08:47;9.10;77.00
47805;DHT22;33568;45.286;9.900;2023-12-07T15:11:14;9.00;77.40
47805;DHT22;33568;45.286;9.900;2023-12-07T15:13:40;8.90;77.60
47805;DHT22;33568;45.286;9.900;2023-12-07T15:16:08;8.80;77.90
47805;DHT22;33568;45.286;9.900;2023-12-07T15:18:35;8.80;78.30
47805;DHT22;33568;45.286;9.900;2023-12-07T15:21:05;8.70;78.70
47805;DHT22;33568;45.286;9.900;2023-12-07T15:23:32;8.60;79.10
47805;DHT22;33568;45.286;9.900;2023-12-07T15:25:58;8.50;79.40
47805;DHT22;33568;45.286;9.900;2023-12-07T15:28:25;8.50;79.80
47805;DHT22;33568;45.286;9.900;2023-12-07T15:30:51;8.40;80.00
47805;DHT22;33568;45.286;9.900;2023-12-07T15:33:18;8.30;80.20
47805;DHT22;33568;45.286;9.900;2023-12-07T15:35:44;8.20;80.50
47805;DHT22;33568;45.286;9.900;2023-12-07T15:38:10;8.10;80.80
47805;DHT22;33568;45.286;9.900;2023-12-07T15:40:37;8.00;82.00
47805;DHT22;33568;45.286;9.900;2023-12-07T15:43:04;7.90;81.10
47805;DHT22;33568;45.286;9.900;2023-12-07T15:45:30;7.90;81.10
47805;DHT22;33568;45.286;9.900;2023-12-07T15:47:57;7.80;82.70
47805;DHT22;33568;45.286;9.900;2023-12-07T15:50:23;7.70;81.60
47805;DHT22;33568;45.286;9.900;2023-12-07T15:52:50;7.70;81.70